createdAt,value
2023-06-28T00:01:23.643Z,60.25
2023-06-28T00:06:26.412Z,59.02
2023-06-28T00:11:29.628Z,62.79
2023-06-28T00:16:32.731Z,56.76
2023-06-28T00:21:35.571Z,59.71
2023-06-28T00:26:38.346Z,63.64
2023-06-28T00:31:41.167Z,55.78
2023-06-28T00:36:43.991Z,57.55
2023-06-28T00:41:46.750Z,64.61
2023-06-28T00:46:50.032Z,56.24
2023-06-28T00:51:52.842Z,58.63
2023-06-28T00:56:55.656Z,63.23
2023-06-28T01:01:58.643Z,57.01
2023-06-28T01:07:01.876Z,60.26
2023-06-28T01:12:05.774Z,62.57
2023-06-28T01:17:08.641Z,59.77
2023-06-28T01:22:14.226Z,64.59
2023-06-28T01:27:17.205Z,57.07
2023-06-28T01:32:21.108Z,62.10
2023-06-28T01:37:24.147Z,61.96
2023-06-28T01:42:27.566Z,58.56
2023-06-28T01:47:30.455Z,63.94
2023-06-28T01:52:33.338Z,58.88
2023-06-28T01:57:36.120Z,60.58
2023-06-28T02:02:38.937Z,66.96
2023-06-28T02:07:42.096Z,60.96
2023-06-28T02:12:45.229Z,56.83
2023-06-28T02:17:49.222Z,62.90
2023-06-28T02:22:52.163Z,61.99
2023-06-28T02:27:54.967Z,59.97
2023-06-28T02:32:57.784Z,63.89
2023-06-28T02:38:00.636Z,59.60
2023-06-28T02:43:03.505Z,63.87
2023-06-28T02:48:06.420Z,60.51
2023-06-28T02:53:09.873Z,61.48
2023-06-28T02:58:13.411Z,64.38
2023-06-28T03:03:16.899Z,60.09
2023-06-28T03:08:19.796Z,65.30
2023-06-28T03:13:23.117Z,59.52
2023-06-28T03:18:25.989Z,61.90
2023-06-28T03:23:28.775Z,63.36
2023-06-28T03:28:31.496Z,60.45
2023-06-28T03:33:34.542Z,63.68
2023-06-28T03:38:37.356Z,59.81
2023-06-28T03:43:40.062Z,62.72
2023-06-28T03:48:42.837Z,60.05
2023-06-28T03:53:45.618Z,59.97
2023-06-28T03:58:50.934Z,62.72
2023-06-28T04:03:53.769Z,60.42
2023-06-28T04:08:56.492Z,62.39
2023-06-28T04:13:59.217Z,58.45
2023-06-28T04:19:02.005Z,62.67
2023-06-28T04:24:04.905Z,60.38
2023-06-28T04:29:07.713Z,58.21
2023-06-28T04:34:10.563Z,62.29
2023-06-28T04:39:13.669Z,57.98
2023-06-28T04:44:17.245Z,61.29
2023-06-28T04:49:20.061Z,60.68
2023-06-28T04:54:22.748Z,57.99
2023-06-28T04:59:25.487Z,62.47
2023-06-28T05:04:28.294Z,58.87
2023-06-28T05:09:31.728Z,60.99
2023-06-28T05:14:35.042Z,60.78
2023-06-28T05:19:37.916Z,59.03
2023-06-28T05:24:40.723Z,61.56
2023-06-28T05:29:43.463Z,58.64
2023-06-28T05:34:46.129Z,62.37
2023-06-28T05:39:48.923Z,57.54
2023-06-28T05:44:51.629Z,60.21
2023-06-28T05:49:54.392Z,62.74
2023-06-28T05:54:57.072Z,56.27
2023-06-28T05:59:59.906Z,59.00
2023-06-28T06:05:05.669Z,61.40
2023-06-28T06:10:10.631Z,58.39
2023-06-28T06:15:14.009Z,57.50
2023-06-28T06:20:16.936Z,60.14
2023-06-28T06:25:19.993Z,62.59
2023-06-28T06:30:22.790Z,59.28
2023-06-28T06:35:26.968Z,56.28
2023-06-28T06:40:29.768Z,57.79
2023-06-28T06:45:32.650Z,60.73
2023-06-28T06:50:35.474Z,61.75
2023-06-28T06:55:38.298Z,61.94
2023-06-28T07:00:41.187Z,57.67
2023-06-28T07:05:44.717Z,58.83
2023-06-28T07:10:47.818Z,60.14
2023-06-28T07:15:50.592Z,60.39
2023-06-28T07:20:53.320Z,60.26
2023-06-28T07:25:56.097Z,60.56
2023-06-28T07:31:00.322Z,60.77
2023-06-28T07:36:03.651Z,60.41
2023-06-28T07:41:07.687Z,60.80
2023-06-28T07:46:10.939Z,60.94
2023-06-28T07:51:13.775Z,60.86
2023-06-28T07:56:16.682Z,61.34
2023-06-28T08:01:19.479Z,61.40
2023-06-28T08:06:22.331Z,60.49
2023-06-28T08:11:28.181Z,60.67
2023-06-28T08:16:31.000Z,60.79
2023-06-28T08:21:33.877Z,61.05
2023-06-28T08:26:37.475Z,61.15
2023-06-28T08:31:40.382Z,61.51
2023-06-28T08:36:43.670Z,61.51
2023-06-28T08:41:47.042Z,61.22
2023-06-28T08:46:51.061Z,61.06
2023-06-28T08:51:55.782Z,61.03
2023-06-28T08:57:11.362Z,60.53
2023-06-28T09:02:20.819Z,60.84
2023-06-28T09:07:24.690Z,60.50
2023-06-28T09:12:29.500Z,60.69
2023-06-28T09:17:32.417Z,59.94
2023-06-28T09:22:35.361Z,59.37
2023-06-28T09:27:38.217Z,59.32
2023-06-28T09:32:46.701Z,59.94
2023-06-28T09:37:51.995Z,60.41
2023-06-28T09:42:54.836Z,60.98
2023-06-28T09:48:02.205Z,59.70
2023-06-28T09:53:14.151Z,58.81
2023-06-28T09:58:19.402Z,58.62
2023-06-28T10:03:25.983Z,59.46
2023-06-28T10:08:29.011Z,59.54
2023-06-28T10:13:31.942Z,59.98
2023-06-28T10:18:34.882Z,60.17
2023-06-28T10:23:40.485Z,60.49
2023-06-28T10:28:45.295Z,60.43
2023-06-28T10:33:49.107Z,60.40
2023-06-28T10:38:52.751Z,59.04
2023-06-28T10:44:06.748Z,56.48
2023-06-28T10:49:09.691Z,57.48
2023-06-28T10:54:16.045Z,56.68
2023-06-28T10:59:19.899Z,55.57
2023-06-28T11:04:27.007Z,54.87
2023-06-28T11:09:29.907Z,56.42
2023-06-28T11:14:33.488Z,55.32
2023-06-28T11:19:36.321Z,53.97
2023-06-28T11:24:39.119Z,54.03
2023-06-28T11:29:59.940Z,54.66
2023-06-28T11:35:05.523Z,55.24
2023-06-28T11:40:09.909Z,56.34
2023-06-28T11:45:13.910Z,56.93
2023-06-28T11:50:17.194Z,57.01
2023-06-28T11:55:20.373Z,56.34
2023-06-28T12:00:23.468Z,54.77
2023-06-28T12:05:28.309Z,55.04
2023-06-28T12:10:36.559Z,55.28
2023-06-28T12:15:39.508Z,55.64
2023-06-28T12:20:44.709Z,55.04
2023-06-28T12:25:48.591Z,55.12
2023-06-28T12:30:57.658Z,52.91
2023-06-28T12:36:01.360Z,53.49
2023-06-28T12:41:07.553Z,53.47
2023-06-28T12:46:11.690Z,51.94
2023-06-28T12:51:14.479Z,49.68
2023-06-28T12:56:17.378Z,48.35
2023-06-28T13:01:20.205Z,47.70
2023-06-28T13:06:23.621Z,48.09
2023-06-28T13:11:31.005Z,48.04
2023-06-28T13:16:33.897Z,47.92
2023-06-28T13:21:36.889Z,48.74
2023-06-28T13:26:39.740Z,49.46
2023-06-28T13:31:44.581Z,49.09
2023-06-28T13:36:48.484Z,49.73
2023-06-28T13:41:51.383Z,49.77
2023-06-28T13:46:54.260Z,51.40
2023-06-28T13:51:57.052Z,49.04
2023-06-28T13:57:00.052Z,48.48
2023-06-28T14:02:02.958Z,47.82
2023-06-28T14:07:06.873Z,47.08
2023-06-28T14:12:10.046Z,45.63
2023-06-28T14:17:13.013Z,46.19
2023-06-28T14:22:16.131Z,45.84
2023-06-28T14:27:18.888Z,44.49
2023-06-28T14:32:22.481Z,46.17
2023-06-28T14:37:25.321Z,48.06
2023-06-28T14:42:28.161Z,47.72
2023-06-28T14:47:31.042Z,47.49
2023-06-28T14:52:34.004Z,45.19
2023-06-28T14:57:36.750Z,43.39
2023-06-28T15:02:39.701Z,43.47
2023-06-28T15:07:42.777Z,44.47
2023-06-28T15:12:45.544Z,43.38
2023-06-28T15:17:48.408Z,43.78
2023-06-28T15:22:54.456Z,42.87
2023-06-28T15:27:57.190Z,40.04
2023-06-28T15:33:00.106Z,40.28
2023-06-28T15:38:03.838Z,41.87
2023-06-28T15:43:06.763Z,43.42
2023-06-28T15:48:10.089Z,45.08
2023-06-28T15:53:12.917Z,47.57
2023-06-28T15:58:15.774Z,49.03
2023-06-28T16:03:18.962Z,47.79
2023-06-28T16:08:21.988Z,46.94
2023-06-28T16:13:25.843Z,44.25
2023-06-28T16:18:28.659Z,41.88
2023-06-28T16:23:31.484Z,41.09
2023-06-28T16:28:34.260Z,38.88
2023-06-28T16:33:37.753Z,39.87
2023-06-28T16:38:40.595Z,38.78
2023-06-28T16:43:43.398Z,37.41
2023-06-28T16:48:46.390Z,36.26
2023-06-28T16:53:49.330Z,35.74
2023-06-28T16:58:52.112Z,34.42
2023-06-28T17:03:55.470Z,34.91
2023-06-28T17:08:58.229Z,33.49
2023-06-28T17:14:01.026Z,33.72
2023-06-28T17:19:04.920Z,33.51
2023-06-28T17:24:08.140Z,32.68
2023-06-28T17:29:11.051Z,32.79
2023-06-28T17:34:13.910Z,33.55
2023-06-28T17:39:18.414Z,34.03
2023-06-28T17:44:21.174Z,34.13
2023-06-28T17:49:24.400Z,34.54
2023-06-28T17:54:29.316Z,33.82
2023-06-28T17:59:32.187Z,33.14
2023-06-28T18:04:35.209Z,33.14
2023-06-28T18:09:38.176Z,35.38
2023-06-28T18:14:43.660Z,38.93
2023-06-28T18:19:47.054Z,42.06
2023-06-28T18:24:49.803Z,44.27
2023-06-28T18:29:52.661Z,45.32
2023-06-28T18:34:55.473Z,48.54
2023-06-28T18:39:58.343Z,50.01
2023-06-28T18:45:01.201Z,52.78
2023-06-28T18:50:05.054Z,55.04
2023-06-28T18:55:09.579Z,54.40
2023-06-28T19:00:16.227Z,57.00
2023-06-28T19:05:19.140Z,59.01
2023-06-28T19:10:22.233Z,59.80
2023-06-28T19:15:25.905Z,61.70
2023-06-28T19:20:28.649Z,62.27
2023-06-28T19:25:31.683Z,54.45
2023-06-28T19:30:34.725Z,58.18
2023-06-28T19:35:37.689Z,61.83
2023-06-28T19:40:40.664Z,61.77
2023-06-28T19:45:44.922Z,54.15
2023-06-28T19:50:48.015Z,57.25
2023-06-28T19:55:50.816Z,62.19
2023-06-28T20:00:54.369Z,60.35
2023-06-28T20:05:57.231Z,57.02
2023-06-28T20:11:00.021Z,62.27
2023-06-28T20:16:03.044Z,61.94
2023-06-28T20:21:05.966Z,55.83
2023-06-28T20:26:08.758Z,59.61
2023-06-28T20:31:12.102Z,64.17
2023-06-28T20:36:14.960Z,56.67
2023-06-28T20:41:26.014Z,59.73
2023-06-28T20:46:29.246Z,64.31
2023-06-28T20:51:31.959Z,56.74
2023-06-28T20:56:34.705Z,59.87
2023-06-28T21:01:37.436Z,64.84
2023-06-28T21:06:41.233Z,57.34
2023-06-28T21:11:43.989Z,60.33
2023-06-28T21:16:47.024Z,65.23
2023-06-28T21:21:49.886Z,58.52
2023-06-28T21:26:52.627Z,59.28
2023-06-28T21:31:55.424Z,64.36
2023-06-28T21:36:58.194Z,63.50
2023-06-28T21:42:01.032Z,56.83
2023-06-28T21:47:04.089Z,59.51
2023-06-28T21:52:07.206Z,65.49
2023-06-28T21:57:10.087Z,63.13
2023-06-28T22:02:12.774Z,56.76
2023-06-28T22:07:15.766Z,62.41
2023-06-28T22:12:18.447Z,65.28
2023-06-28T22:17:21.354Z,60.94
2023-06-28T22:22:24.125Z,57.17
2023-06-28T22:27:27.165Z,61.07
2023-06-28T22:32:30.048Z,66.62
2023-06-28T22:37:32.918Z,58.99
2023-06-28T22:42:35.734Z,57.61
2023-06-28T22:47:38.404Z,63.27
2023-06-28T22:52:45.622Z,63.99
2023-06-28T22:57:49.356Z,57.31
2023-06-28T23:02:52.240Z,61.18
2023-06-28T23:07:55.590Z,66.12
2023-06-28T23:12:58.345Z,58.79
2023-06-28T23:18:02.086Z,59.47
2023-06-28T23:23:05.432Z,65.00
2023-06-28T23:28:08.167Z,58.45
2023-06-28T23:33:15.327Z,59.77
2023-06-28T23:38:18.324Z,66.87
2023-06-28T23:43:21.047Z,60.59
2023-06-28T23:48:27.019Z,56.86
2023-06-28T23:53:29.828Z,60.46
2023-06-28T23:58:32.480Z,63.88
